Time;durP1;ratioP1;P1;durP2;ratioP2;P2;SDS_P1;SDS_P2;PMS_P1;PMS_P2;Temp;Humidity;BMP_temperature;BMP_pressure;BME280_temperature;BME280_humidity;BME280_pressure;Samples;Min_cycle;Max_cycle;Signal;HPM_P1;HPM_P2
2021/01/06 00:01:12;;;;;;;31.27;16.98;;;0.00;98.00;;;;;;5034203;28;20315;-70
2021/01/06 00:03:38;;;;;;;41.50;16.55;;;-0.10;98.00;;;;;;5034103;28;20053;-69
2021/01/06 00:06:07;;;;;;;32.63;15.00;;;0.00;98.00;;;;;;5034644;28;20025;-70
2021/01/06 00:08:32;;;;;;;29.80;16.00;;;0.00;98.00;;;;;;5033745;28;20029;-70
2021/01/06 00:11:02;;;;;;;28.52;15.73;;;0.00;98.00;;;;;;5011795;28;20042;-69
2021/01/06 00:13:29;;;;;;;30.92;14.98;;;-0.10;98.00;;;;;;5042689;28;20040;-69
2021/01/06 00:15:55;;;;;;;35.67;15.30;;;-0.10;98.00;;;;;;5034264;28;20063;-70
2021/01/06 00:18:23;;;;;;;28.98;13.80;;;-0.10;98.00;;;;;;5034628;28;20498;-70
2021/01/06 00:20:50;;;;;;;32.55;15.25;;;-0.10;98.00;;;;;;5032922;28;20374;-69
2021/01/06 00:23:16;;;;;;;34.38;18.70;;;-0.10;98.00;;;;;;5034086;28;20033;-70
2021/01/06 00:25:42;;;;;;;45.38;20.33;;;-0.10;98.00;;;;;;5024257;28;20379;-70
2021/01/06 00:28:10;;;;;;;47.58;23.33;;;-0.10;98.00;;;;;;5032926;28;20071;-69
2021/01/06 00:30:47;;;;;;;48.03;23.88;;;-0.20;98.00;;;;;;5031080;28;20049;-70
2021/01/06 00:33:18;;;;;;;42.53;21.92;;;-0.20;98.00;;;;;;5031089;28;20218;-70
2021/01/06 00:35:49;;;;;;;40.10;20.08;;;-0.20;98.00;;;;;;5033850;28;20028;-69
2021/01/06 00:38:15;;;;;;;46.95;22.08;;;-0.20;98.00;;;;;;5034041;28;20103;-68
2021/01/06 00:40:43;;;;;;;51.10;24.17;;;-0.20;98.00;;;;;;5032220;28;20146;-70
2021/01/06 00:43:11;;;;;;;53.20;25.55;;;-0.20;98.00;;;;;;5033409;28;20033;-70
2021/01/06 00:45:37;;;;;;;53.42;23.73;;;-0.20;98.00;;;;;;5027828;28;20037;-70
2021/01/06 00:48:05;;;;;;;43.35;22.13;;;-0.20;98.00;;;;;;5033827;28;20036;-69
2021/01/06 00:50:32;;;;;;;44.83;23.23;;;-0.20;98.00;;;;;;5037373;28;20186;-69
2021/01/06 00:53:25;;;;;;;46.60;22.85;;;-0.10;98.00;;;;;;5050903;28;20441;-69
2021/01/06 00:55:51;;;;;;;49.45;23.73;;;-0.20;98.00;;;;;;5011646;28;20049;-70
2021/01/06 00:58:17;;;;;;;39.58;20.85;;;-0.10;98.00;;;;;;5018046;28;20437;-70
2021/01/06 01:00:44;;;;;;;41.03;20.33;;;-0.20;98.00;;;;;;5033458;28;20111;-70
2021/01/06 01:03:11;;;;;;;42.05;22.67;;;-0.20;98.00;;;;;;5045980;28;20036;-70
2021/01/06 01:05:37;;;;;;;40.28;20.25;;;-0.20;98.00;;;;;;5039807;28;20087;-70
2021/01/06 01:08:06;;;;;;;41.47;21.92;;;-0.20;98.00;;;;;;5032188;28;20041;-69
2021/01/06 01:10:46;;;;;;;48.35;22.90;;;-0.20;98.00;;;;;;5029274;28;20029;-70
2021/01/06 01:13:25;;;;;;;47.10;22.27;;;-0.20;98.00;;;;;;5032130;28;20025;-70
2021/01/06 01:15:56;;;;;;;41.10;20.83;;;-0.20;98.00;;;;;;5032516;28;20028;-68
2021/01/06 01:18:27;;;;;;;47.00;22.15;;;-0.20;98.00;;;;;;5023052;28;20330;-70
2021/01/06 01:20:56;;;;;;;38.67;19.45;;;-0.30;98.00;;;;;;5036782;28;20030;-70
2021/01/06 01:23:25;;;;;;;35.70;19.85;;;-0.30;98.00;;;;;;5034306;28;20550;-70
2021/01/06 01:25:52;;;;;;;41.67;20.58;;;-0.20;98.00;;;;;;5031494;28;20022;-70
2021/01/06 01:28:19;;;;;;;42.83;21.95;;;-0.20;98.00;;;;;;5031891;28;20071;-69
2021/01/06 01:30:48;;;;;;;40.47;21.42;;;-0.20;98.00;;;;;;5032467;28;20029;-70
2021/01/06 01:33:15;;;;;;;32.95;18.13;;;-0.20;98.00;;;;;;5030227;28;20021;-70
2021/01/06 01:35:43;;;;;;;36.60;19.23;;;-0.20;98.00;;;;;;5032238;28;20025;-69
2021/01/06 01:38:19;;;;;;;40.85;20.55;;;-0.20;98.00;;;;;;5032145;28;20025;-69
2021/01/06 01:40:59;;;;;;;39.08;19.45;;;-0.30;98.00;;;;;;5029986;28;20406;-69
2021/01/06 01:43:28;;;;;;;37.50;19.25;;;-0.30;98.00;;;;;;5031566;28;20044;-68
2021/01/06 01:45:56;;;;;;;34.60;18.85;;;-0.20;98.00;;;;;;5032099;28;20304;-71
2021/01/06 01:48:36;;;;;;;39.63;20.50;;;-0.20;98.00;;;;;;5031746;28;20330;-70
2021/01/06 01:51:26;;;;;;;34.85;20.13;;;-0.20;98.00;;;;;;5031488;28;20081;-71
2021/01/06 01:54:03;;;;;;;41.00;20.92;;;-0.20;98.00;;;;;;5042745;28;20036;-70
2021/01/06 01:56:43;;;;;;;42.15;20.65;;;-0.30;98.00;;;;;;5030668;28;20032;-70
2021/01/06 01:59:18;;;;;;;48.13;21.58;;;-0.30;98.00;;;;;;5031066;28;20022;-69
2021/01/06 02:02:00;;;;;;;45.88;21.58;;;-0.30;98.00;;;;;;5029766;28;20039;-69
2021/01/06 02:04:38;;;;;;;39.00;20.20;;;-0.30;98.00;;;;;;5031234;28;20434;-70
2021/01/06 02:07:32;;;;;;;42.28;21.80;;;-0.30;98.00;;;;;;5032021;28;20434;-70
2021/01/06 02:10:04;;;;;;;46.28;21.88;;;-0.30;98.00;;;;;;5027905;28;20041;-69
2021/01/06 02:12:46;;;;;;;46.42;21.70;;;-0.30;98.00;;;;;;5031515;28;20061;-70
2021/01/06 02:15:41;;;;;;;40.63;21.83;;;-0.30;98.00;;;;;;5029510;28;20061;-68
2021/01/06 02:18:09;;;;;;;40.97;20.77;;;-0.30;98.00;;;;;;5031519;28;20037;-70
2021/01/06 02:20:35;;;;;;;46.00;22.13;;;-0.30;98.00;;;;;;5035118;28;20022;-70
2021/01/06 02:23:01;;;;;;;37.53;19.83;;;-0.30;98.00;;;;;;5031262;28;20033;-68
2021/01/06 02:25:29;;;;;;;44.83;20.85;;;-0.30;98.00;;;;;;5029409;28;20453;-68
2021/01/06 02:27:56;;;;;;;40.42;20.25;;;-0.30;98.00;;;;;;5029538;28;20307;-69
2021/01/06 02:30:23;;;;;;;40.60;21.38;;;-0.30;98.00;;;;;;5030166;28;20036;-70
2021/01/06 02:32:50;;;;;;;44.00;21.80;;;-0.30;98.00;;;;;;5030201;28;20075;-69
2021/01/06 02:35:16;;;;;;;40.05;21.30;;;-0.20;98.00;;;;;;5031991;28;20033;-70
2021/01/06 02:37:43;;;;;;;38.78;20.00;;;-0.30;98.00;;;;;;5031614;28;20030;-70
2021/01/06 02:40:10;;;;;;;39.75;21.02;;;-0.30;98.00;;;;;;5030275;28;20736;-68
2021/01/06 02:42:37;;;;;;;38.80;20.17;;;-0.30;98.00;;;;;;5031410;28;20036;-70
2021/01/06 02:45:14;;;;;;;42.22;21.42;;;-0.30;98.00;;;;;;5029921;28;20033;-69
2021/01/06 02:47:41;;;;;;;38.63;20.50;;;-0.30;98.00;;;;;;5030647;28;20033;-69
2021/01/06 02:50:12;;;;;;;36.83;19.70;;;-0.30;98.00;;;;;;5030759;28;20033;-68
2021/01/06 02:52:45;;;;;;;39.22;20.13;;;-0.30;98.00;;;;;;5035981;28;20492;-69
2021/01/06 02:55:15;;;;;;;38.58;21.02;;;-0.30;98.00;;;;;;5036532;28;20034;-70
2021/01/06 02:57:41;;;;;;;37.03;19.73;;;-0.30;98.00;;;;;;5038001;28;20064;-69
2021/01/06 03:00:09;;;;;;;44.60;20.25;;;-0.30;98.00;;;;;;5037156;28;20430;-71
2021/01/06 03:02:35;;;;;;;34.50;19.48;;;-0.30;98.00;;;;;;5037365;28;20054;-70
2021/01/06 03:05:24;;;;;;;38.78;21.45;;;-0.20;98.00;;;;;;5038317;28;20029;-70
2021/01/06 03:07:51;;;;;;;36.10;18.88;;;-0.20;98.00;;;;;;5029024;28;20021;-70
2021/01/06 03:10:19;;;;;;;43.35;22.02;;;-0.20;98.00;;;;;;5036236;28;20061;-70
2021/01/06 03:12:47;;;;;;;33.97;18.75;;;-0.20;98.00;;;;;;5037399;28;20036;-69
2021/01/06 03:15:15;;;;;;;39.70;20.38;;;-0.10;98.00;;;;;;5038027;28;20026;-68
2021/01/06 03:17:41;;;;;;;36.90;17.38;;;-0.10;98.00;;;;;;5035319;28;20021;-69
2021/01/06 03:20:25;;;;;;;32.47;16.58;;;-0.10;98.00;;;;;;5037645;28;20026;-70
2021/01/06 03:23:04;;;;;;;28.90;14.93;;;-0.20;98.00;;;;;;5037591;28;20321;-69
2021/01/06 03:25:30;;;;;;;69.28;16.95;;;-0.20;98.00;;;;;;5030476;28;20037;-68
2021/01/06 03:27:59;;;;;;;33.90;14.00;;;-0.20;98.00;;;;;;5036678;28;20386;-70
2021/01/06 03:30:28;;;;;;;74.40;17.02;;;-0.20;98.00;;;;;;5038572;28;20035;-68
2021/01/06 03:33:39;;;;;;;94.70;14.57;;;-0.20;98.00;;;;;;5037643;28;20029;-67
2021/01/06 03:36:17;;;;;;;84.20;15.18;;;-0.20;98.00;;;;;;5010783;28;20044;-69
2021/01/06 03:38:57;;;;;;;33.28;12.15;;;-0.30;98.00;;;;;;5014609;28;20109;-67
2021/01/06 03:41:25;;;;;;;109.25;18.67;;;-0.30;98.00;;;;;;5028201;28;20342;-69
2021/01/06 03:44:03;;;;;;;57.28;14.38;;;-0.30;98.00;;;;;;5037932;28;20097;-68
2021/01/06 03:46:54;;;;;;;30.52;14.20;;;-0.30;98.00;;;;;;5037301;28;20014;-69
2021/01/06 03:49:46;;;;;;;26.92;12.93;;;-0.30;98.00;;;;;;5028728;28;20460;-68
2021/01/06 03:52:18;;;;;;;35.90;11.55;;;-0.30;98.00;;;;;;5026051;28;20110;-69
2021/01/06 03:55:04;;;;;;;37.17;15.23;;;-0.30;98.00;;;;;;5036845;28;20033;-69
2021/01/06 03:57:31;;;;;;;32.95;12.32;;;-0.30;98.00;;;;;;5037466;28;20032;-67
2021/01/06 03:59:59;;;;;;;46.10;11.38;;;-0.40;98.00;;;;;;5036732;28;20423;-69
2021/01/06 04:02:42;;;;;;;25.63;12.98;;;-0.30;98.00;;;;;;5037270;28;20037;-68
2021/01/06 04:05:16;;;;;;;90.97;12.65;;;-0.30;98.00;;;;;;5036936;28;20029;-68
2021/01/06 04:07:44;;;;;;;;;;;-0.40;98.00;;;;;;5037469;28;20041;-69
2021/01/06 04:10:14;;;;;;;72.10;11.25;;;-0.40;98.00;;;;;;5034845;28;19916;-68
2021/01/06 04:12:39;;;;;;;87.97;12.45;;;-0.40;98.00;;;;;;5035168;28;20036;-68
2021/01/06 04:15:07;;;;;;;52.72;13.15;;;-0.40;98.00;;;;;;5037031;28;20021;-69
2021/01/06 04:17:42;;;;;;;24.73;11.60;;;-0.40;98.00;;;;;;5034887;28;20026;-69
2021/01/06 04:20:32;;;;;;;38.22;11.63;;;-0.40;98.00;;;;;;5036444;28;20032;-68
2021/01/06 04:23:01;;;;;;;32.03;10.65;;;-0.40;98.00;;;;;;5036391;28;20061;-69
2021/01/06 04:25:41;;;;;;;52.80;12.10;;;-0.40;98.00;;;;;;5043914;28;20036;-69
2021/01/06 04:28:18;;;;;;;39.95;12.27;;;-0.40;98.00;;;;;;5036315;28;20100;-69
2021/01/06 04:30:48;;;;;;;49.83;11.32;;;-0.40;98.00;;;;;;5032043;28;20025;-68
2021/01/06 04:33:18;;;;;;;19.83;13.18;;;-0.40;98.00;;;;;;5036506;28;20037;-68
2021/01/06 04:35:46;;;;;;;23.95;13.45;;;-0.50;98.00;;;;;;5036110;28;20018;-67
2021/01/06 04:38:36;;;;;;;22.52;11.88;;;-0.50;98.00;;;;;;5036180;28;20032;-67
2021/01/06 04:41:23;;;;;;;21.63;13.50;;;-0.50;98.00;;;;;;5032241;28;20061;-69
2021/01/06 04:44:32;;;;;;;22.95;13.07;;;-0.50;98.00;;;;;;5035132;28;20037;-68
2021/01/06 04:47:00;;;;;;;18.83;12.82;;;-0.50;98.00;;;;;;5022679;28;20044;-69
2021/01/06 04:49:37;;;;;;;19.58;13.00;;;-0.50;98.00;;;;;;5035513;28;20442;-69
2021/01/06 04:52:04;;;;;;;16.63;11.73;;;-0.50;98.00;;;;;;5035931;28;20049;-68
2021/01/06 04:54:52;;;;;;;16.65;11.80;;;-0.50;98.00;;;;;;5035612;28;20029;-68
2021/01/06 04:57:36;;;;;;;18.92;11.95;;;-0.50;98.00;;;;;;5036308;28;20324;-68
2021/01/06 05:00:13;;;;;;;16.52;9.95;;;-0.50;98.00;;;;;;5036485;28;20334;-69
2021/01/06 05:03:43;;;;;;;15.20;9.68;;;-0.40;98.00;;;;;;5036298;28;20048;-69
2021/01/06 05:06:15;;;;;;;15.30;10.07;;;-0.50;98.00;;;;;;4975746;28;20034;-69
2021/01/06 05:08:44;;;;;;;12.80;9.75;;;-0.50;98.00;;;;;;4968540;28;20027;-70
2021/01/06 05:11:36;;;;;;;16.83;10.73;;;-0.50;98.00;;;;;;5009257;28;20128;-69
2021/01/06 05:14:16;;;;;;;16.35;9.73;;;-0.50;98.00;;;;;;5035613;28;20060;-69
2021/01/06 05:16:48;;;;;;;13.52;9.73;;;-0.50;98.00;;;;;;5036101;28;20056;-68
2021/01/06 05:19:20;;;;;;;17.33;11.50;;;-0.50;98.00;;;;;;5033346;28;20108;-69
2021/01/06 05:21:47;;;;;;;17.55;10.63;;;-0.50;98.00;;;;;;5036156;28;20100;-68
2021/01/06 05:24:32;;;;;;;14.45;9.90;;;-0.40;98.00;;;;;;5035197;28;20032;-69
2021/01/06 05:27:13;;;;;;;14.07;9.38;;;-0.50;98.00;;;;;;5033974;28;20029;-67
2021/01/06 05:29:45;;;;;;;13.43;9.13;;;-0.50;98.00;;;;;;5033806;28;20044;-69
2021/01/06 05:32:34;;;;;;;14.20;8.77;;;-0.50;98.00;;;;;;5035655;28;20025;-69
2021/01/06 05:35:14;;;;;;;21.35;9.30;;;-0.50;98.00;;;;;;5034212;28;20045;-67
2021/01/06 05:37:41;;;;;;;47.08;13.95;;;-0.50;98.00;;;;;;5034919;28;20441;-69
2021/01/06 05:40:08;;;;;;;41.67;13.27;;;-0.50;98.00;;;;;;5033874;28;20025;-68
2021/01/06 05:42:48;;;;;;;16.67;10.32;;;-0.60;98.00;;;;;;5034811;28;20037;-68
2021/01/06 05:45:17;;;;;;;61.65;12.73;;;-0.60;98.00;;;;;;5035789;28;20025;-69
2021/01/06 05:47:51;;;;;;;31.92;11.80;;;-0.50;98.00;;;;;;5029595;28;20032;-69
2021/01/06 05:50:22;;;;;;;13.70;9.73;;;-0.60;98.00;;;;;;5035638;28;20025;-69
2021/01/06 05:53:05;;;;;;;15.88;10.65;;;-0.60;98.00;;;;;;5034067;28;20033;-69
2021/01/06 05:55:35;;;;;;;13.88;9.40;;;-0.60;98.00;;;;;;5022532;28;20029;-68
2021/01/06 05:58:35;;;;;;;14.75;8.85;;;-0.60;98.00;;;;;;5034924;28;20033;-69
2021/01/06 06:01:36;;;;;;;13.75;9.38;;;-0.60;98.00;;;;;;5031633;28;20041;-69
2021/01/06 06:04:16;;;;;;;29.10;9.65;;;-0.60;98.00;;;;;;5034028;28;20100;-68
2021/01/06 06:07:11;;;;;;;12.70;8.98;;;-0.60;98.00;;;;;;5034578;28;20037;-68
2021/01/06 06:10:19;;;;;;;39.90;11.52;;;-0.60;98.00;;;;;;5030352;28;20036;-69
2021/01/06 06:13:09;;;;;;;15.43;9.75;;;-0.60;98.00;;;;;;5033989;28;20033;-69
2021/01/06 06:15:56;;;;;;;15.07;9.60;;;-0.60;98.00;;;;;;5029331;28;20026;-69
2021/01/06 06:18:47;;;;;;;17.10;11.30;;;-0.70;98.00;;;;;;5027292;28;20036;-69
2021/01/06 06:21:35;;;;;;;18.00;11.77;;;-0.70;98.00;;;;;;5035524;28;20535;-69
2021/01/06 06:24:17;;;;;;;15.30;10.18;;;-0.70;98.00;;;;;;5035026;28;20086;-68
2021/01/06 06:27:04;;;;;;;16.92;10.40;;;-0.70;98.00;;;;;;5034430;28;20064;-69
2021/01/06 06:29:49;;;;;;;14.82;10.18;;;-0.70;98.00;;;;;;5016607;28;20034;-68
2021/01/06 06:32:16;;;;;;;15.13;10.02;;;-0.70;98.00;;;;;;5036012;28;20392;-69
2021/01/06 06:34:44;;;;;;;18.33;11.23;;;-0.70;98.00;;;;;;5035233;28;20044;-69
2021/01/06 06:37:19;;;;;;;15.23;10.75;;;-0.70;98.00;;;;;;5035245;28;20031;-69
2021/01/06 06:40:09;;;;;;;16.83;11.65;;;-0.70;98.00;;;;;;5032868;28;20132;-69
2021/01/06 06:42:55;;;;;;;16.48;11.32;;;-0.80;98.00;;;;;;5032140;28;20033;-69
2021/01/06 06:45:41;;;;;;;18.25;11.82;;;-0.80;98.00;;;;;;5015456;28;20099;-68
2021/01/06 06:48:40;;;;;;;17.67;11.52;;;-0.80;98.00;;;;;;5026370;28;20044;-67
2021/01/06 06:51:21;;;;;;;23.83;11.43;;;-0.80;98.00;;;;;;5011823;28;20049;-69
2021/01/06 06:53:54;;;;;;;21.90;12.00;;;-0.80;98.00;;;;;;5034653;28;20022;-69
2021/01/06 06:56:47;;;;;;;15.37;11.03;;;-0.80;98.00;;;;;;5033107;28;20092;-69
2021/01/06 06:59:42;;;;;;;18.08;11.63;;;-0.80;98.00;;;;;;5030874;28;20029;-70
2021/01/06 07:02:08;;;;;;;19.73;11.27;;;-0.80;98.00;;;;;;5034715;28;20439;-68
2021/01/06 07:04:42;;;;;;;24.17;15.43;;;-0.80;98.00;;;;;;5033872;28;20045;-70
2021/01/06 07:07:21;;;;;;;26.23;16.63;;;-0.80;98.00;;;;;;5032559;28;20048;-69
2021/01/06 07:09:50;;;;;;;25.45;16.73;;;-0.80;98.00;;;;;;5033493;28;20407;-69
2021/01/06 07:12:17;;;;;;;24.63;14.52;;;-0.80;98.00;;;;;;5034620;28;20045;-70
2021/01/06 07:15:00;;;;;;;19.10;13.43;;;-0.80;98.00;;;;;;5034028;28;20352;-69
2021/01/06 07:17:32;;;;;;;17.10;11.73;;;-0.90;98.00;;;;;;5032878;28;20028;-68
2021/01/06 07:20:41;;;;;;;19.52;12.55;;;-0.80;98.00;;;;;;5034294;28;20033;-68
2021/01/06 07:23:21;;;;;;;17.48;12.75;;;-0.80;98.00;;;;;;5031922;28;20030;-68
2021/01/06 07:26:01;;;;;;;22.25;14.20;;;-0.80;98.00;;;;;;5014746;28;20088;-67
2021/01/06 07:28:28;;;;;;;16.77;11.25;;;-0.80;98.00;;;;;;5034673;28;20490;-68
2021/01/06 07:30:54;;;;;;;22.83;12.20;;;-0.80;98.00;;;;;;5033667;28;20102;-68
2021/01/06 07:33:39;;;;;;;17.38;12.73;;;-0.80;98.00;;;;;;5032483;28;20443;-67
2021/01/06 07:36:22;;;;;;;19.85;13.20;;;-0.80;98.00;;;;;;5034724;28;20083;-69
2021/01/06 07:38:48;;;;;;;17.05;11.35;;;-0.80;98.00;;;;;;5041467;28;20017;-71
2021/01/06 07:41:16;;;;;;;19.63;12.90;;;-0.70;98.00;;;;;;5037112;28;20083;-70
2021/01/06 07:44:06;;;;;;;21.95;13.20;;;-0.70;98.00;;;;;;5037835;28;20018;-69
2021/01/06 07:46:53;;;;;;;18.65;13.27;;;-0.70;98.00;;;;;;5037124;28;20037;-70
2021/01/06 07:49:44;;;;;;;23.85;15.35;;;-0.70;98.00;;;;;;5037229;28;20113;-70
2021/01/06 07:52:28;;;;;;;21.67;13.02;;;-0.70;98.00;;;;;;5037265;28;20045;-70
2021/01/06 07:55:19;;;;;;;22.50;15.15;;;-0.70;98.00;;;;;;5030647;28;20021;-70
2021/01/06 07:57:52;;;;;;;21.58;15.32;;;-0.70;98.00;;;;;;5038389;28;20037;-69
2021/01/06 08:00:38;;;;;;;24.52;16.13;;;-0.70;98.00;;;;;;5036586;28;20509;-69
2021/01/06 08:03:20;;;;;;;20.95;12.38;;;-0.70;98.00;;;;;;5036201;28;20029;-69
2021/01/06 08:05:57;;;;;;;22.75;13.10;;;-0.60;98.00;;;;;;5029270;28;20029;-70
2021/01/06 08:08:24;;;;;;;16.70;11.82;;;-0.60;98.00;;;;;;5026457;28;20025;-69
2021/01/06 08:10:50;;;;;;;24.95;14.68;;;-0.60;98.00;;;;;;5028791;28;20104;-68
2021/01/06 08:13:22;;;;;;;25.23;14.95;;;-0.50;98.00;;;;;;5030366;28;20025;-68
2021/01/06 08:15:53;;;;;;;20.90;13.18;;;-0.60;98.00;;;;;;5043803;28;20025;-67
2021/01/06 08:18:21;;;;;;;15.98;11.60;;;-0.60;98.00;;;;;;5037024;28;20014;-69
2021/01/06 08:21:03;;;;;;;21.90;13.48;;;-0.60;98.00;;;;;;5036262;28;20092;-70
2021/01/06 08:24:02;;;;;;;19.95;13.07;;;-0.50;98.00;;;;;;5033890;28;20022;-68
2021/01/06 08:26:30;;;;;;;15.60;11.88;;;-0.50;98.00;;;;;;5031650;28;20080;-69
2021/01/06 08:29:18;;;;;;;22.67;15.65;;;-0.40;98.00;;;;;;5029687;28;20037;-68
2021/01/06 08:31:47;;;;;;;24.33;16.70;;;-0.40;98.00;;;;;;5030841;28;20029;-67
2021/01/06 08:34:40;;;;;;;21.38;14.25;;;-0.40;98.00;;;;;;5022766;28;20327;-69
2021/01/06 08:37:12;;;;;;;18.23;12.88;;;-0.30;98.00;;;;;;5034839;28;20037;-70
2021/01/06 08:39:51;;;;;;;18.27;13.07;;;-0.20;98.00;;;;;;5017446;28;20030;-68
2021/01/06 08:42:38;;;;;;;28.00;16.92;;;-0.20;98.00;;;;;;5025569;28;20013;-68
2021/01/06 08:45:06;;;;;;;21.83;13.95;;;-0.10;98.00;;;;;;5026310;28;20116;-71
2021/01/06 08:47:39;;;;;;;26.15;14.13;;;-0.10;98.00;;;;;;5025139;28;20080;-68
2021/01/06 08:50:16;;;;;;;23.08;14.70;;;-0.10;98.00;;;;;;5026002;28;20021;-70
2021/01/06 08:52:59;;;;;;;20.80;14.40;;;-0.10;98.00;;;;;;5023251;28;20120;-69
2021/01/06 08:55:41;;;;;;;25.83;18.63;;;-0.10;98.00;;;;;;5022985;28;20221;-70
2021/01/06 08:58:12;;;;;;;24.33;15.00;;;-0.10;98.00;;;;;;5036911;28;20396;-70
2021/01/06 09:00:59;;;;;;;28.15;15.95;;;-0.10;98.00;;;;;;5030711;28;20057;-69
2021/01/06 09:04:11;;;;;;;22.55;16.08;;;0.00;98.00;;;;;;5027019;28;20037;-69
2021/01/06 09:07:14;;;;;;;16.33;11.65;;;-0.10;98.00;;;;;;5003214;28;20439;-68
2021/01/06 09:09:40;;;;;;;17.85;12.68;;;-0.10;98.00;;;;;;5021984;28;20033;-68
2021/01/06 09:12:38;;;;;;;17.63;12.48;;;-0.10;98.00;;;;;;5025448;28;20103;-68
2021/01/06 09:15:14;;;;;;;21.20;15.18;;;-0.20;98.00;;;;;;5033390;28;20021;-68
2021/01/06 09:18:03;;;;;;;21.17;13.93;;;-0.20;98.00;;;;;;5034668;28;20028;-69
2021/01/06 09:20:36;;;;;;;20.80;13.98;;;-0.10;98.00;;;;;;5033517;28;20071;-70
2021/01/06 09:23:02;;;;;;;23.05;14.15;;;0.00;98.00;;;;;;5026155;28;20057;-70
2021/01/06 09:25:28;;;;;;;17.50;12.68;;;0.00;98.00;;;;;;5016455;28;20026;-68
2021/01/06 09:27:59;;;;;;;19.25;13.60;;;0.00;98.00;;;;;;5031060;28;20075;-69
2021/01/06 09:30:36;;;;;;;31.13;18.52;;;0.10;98.00;;;;;;5035893;28;20375;-70
2021/01/06 09:33:11;;;;;;;18.67;13.05;;;0.10;98.00;;;;;;5030545;28;20059;-70
2021/01/06 09:35:36;;;;;;;18.98;13.95;;;0.20;98.00;;;;;;5018622;28;20026;-69
2021/01/06 09:38:21;;;;;;;23.75;15.10;;;0.10;98.00;;;;;;5023500;28;20749;-70
2021/01/06 09:40:50;;;;;;;24.05;15.80;;;0.10;98.00;;;;;;5015652;28;20036;-69
2021/01/06 09:43:47;;;;;;;22.58;15.50;;;0.00;98.00;;;;;;5033503;28;20030;-69
2021/01/06 09:46:28;;;;;;;20.25;14.70;;;0.10;98.00;;;;;;5022565;28;20033;-69
2021/01/06 09:49:23;;;;;;;16.83;12.50;;;0.10;98.00;;;;;;5031208;28;20033;-68
2021/01/06 09:51:56;;;;;;;17.40;12.40;;;0.10;98.00;;;;;;5031193;28;20045;-68
2021/01/06 09:54:24;;;;;;;21.63;14.73;;;0.10;98.00;;;;;;5025718;28;20040;-70
2021/01/06 09:56:50;;;;;;;21.50;16.05;;;0.10;98.00;;;;;;5032916;28;20095;-68
2021/01/06 09:59:29;;;;;;;20.20;13.85;;;0.00;98.00;;;;;;5020317;28;20034;-69
2021/01/06 10:02:17;;;;;;;22.42;15.20;;;0.00;98.00;;;;;;5021619;28;20092;-70
2021/01/06 10:04:45;;;;;;;18.63;13.48;;;0.00;98.00;;;;;;5031150;28;20056;-70
2021/01/06 10:07:25;;;;;;;18.58;13.68;;;0.10;98.00;;;;;;5029603;28;20323;-71
2021/01/06 10:10:11;;;;;;;17.20;12.45;;;0.10;98.00;;;;;;5021070;28;20029;-70
2021/01/06 10:12:57;;;;;;;16.38;11.60;;;0.20;98.00;;;;;;5015389;28;20527;-70
2021/01/06 10:16:05;;;;;;;21.45;14.50;;;0.20;98.00;;;;;;5056548;28;20036;-71
2021/01/06 10:18:59;;;;;;;21.73;13.65;;;0.20;98.00;;;;;;5030340;28;20041;-70
2021/01/06 10:21:51;;;;;;;20.05;14.10;;;0.30;98.00;;;;;;5033343;28;20013;-68
2021/01/06 10:24:58;;;;;;;22.00;14.45;;;0.30;98.00;;;;;;5024882;28;20108;-68
2021/01/06 10:27:34;;;;;;;23.52;16.73;;;0.50;98.00;;;;;;5014838;28;20030;-67
2021/01/06 10:30:14;;;;;;;21.48;15.40;;;0.40;98.00;;;;;;4999445;28;20040;-70
2021/01/06 10:32:45;;;;;;;20.75;13.68;;;0.40;98.00;;;;;;5011636;28;20430;-69
2021/01/06 10:35:31;;;;;;;20.52;13.23;;;0.40;98.00;;;;;;5027678;28;20029;-69
2021/01/06 10:37:58;;;;;;;17.38;13.40;;;0.40;98.00;;;;;;5022691;28;20101;-69
2021/01/06 10:40:37;;;;;;;17.25;12.82;;;0.40;98.00;;;;;;5014396;28;20407;-70
2021/01/06 10:43:41;;;;;;;24.88;15.48;;;0.40;98.00;;;;;;5025851;28;20108;-69
2021/01/06 10:46:34;;;;;;;22.08;15.25;;;0.50;98.00;;;;;;5020810;28;20098;-69
2021/01/06 10:49:00;;;;;;;17.02;11.88;;;0.50;98.00;;;;;;5033449;28;20438;-72
2021/01/06 10:51:54;;;;;;;19.58;13.77;;;0.60;98.00;;;;;;5033511;28;20346;-70
2021/01/06 10:54:44;;;;;;;15.77;12.10;;;0.50;98.00;;;;;;5026879;28;20318;-70
2021/01/06 10:57:34;;;;;;;21.02;12.98;;;0.60;98.00;;;;;;5033939;28;20052;-69
2021/01/06 11:00:20;;;;;;;19.30;13.32;;;0.60;98.00;;;;;;5038033;28;20025;-70
2021/01/06 11:03:38;;;;;;;16.00;10.05;;;0.60;98.00;;;;;;5041393;28;20025;-69
2021/01/06 11:06:12;;;;;;;14.13;10.60;;;0.70;98.00;;;;;;5005159;28;20069;-70
2021/01/06 11:08:59;;;;;;;19.42;12.65;;;0.80;98.00;;;;;;5031170;28;20032;-71
2021/01/06 11:11:33;;;;;;;19.38;12.25;;;0.80;98.00;;;;;;5033687;28;20029;-68
2021/01/06 11:14:21;;;;;;;24.67;14.95;;;0.70;98.00;;;;;;5038542;28;20035;-70
2021/01/06 11:17:14;;;;;;;25.52;15.95;;;0.60;98.00;;;;;;5039401;28;20018;-70
2021/01/06 11:19:58;;;;;;;34.03;16.60;;;0.70;98.00;;;;;;5019110;28;20115;-70
2021/01/06 11:22:37;;;;;;;22.98;14.13;;;0.80;98.00;;;;;;5029061;28;20033;-68
2021/01/06 11:25:24;;;;;;;16.33;10.93;;;0.80;98.00;;;;;;5036441;28;20034;-70
2021/01/06 11:27:49;;;;;;;16.98;12.35;;;0.80;98.00;;;;;;5065136;28;20032;-69
2021/01/06 11:30:34;;;;;;;17.42;12.68;;;0.70;98.00;;;;;;5037753;28;20345;-70
2021/01/06 11:33:17;;;;;;;18.42;13.10;;;0.70;98.00;;;;;;5037459;28;20399;-69
2021/01/06 11:35:42;;;;;;;21.70;14.35;;;0.60;98.00;;;;;;5038364;28;20100;-71
2021/01/06 11:38:33;;;;;;;20.85;14.77;;;0.50;98.00;;;;;;5037958;28;20104;-69
2021/01/06 11:40:59;;;;;;;19.30;13.82;;;0.50;98.00;;;;;;5033505;28;20109;-70
2021/01/06 11:43:48;;;;;;;21.00;13.30;;;0.50;98.00;;;;;;5037693;28;20125;-70
2021/01/06 11:46:40;;;;;;;16.63;13.40;;;0.40;98.00;;;;;;5037772;28;20040;-69
2021/01/06 11:49:12;;;;;;;20.70;14.45;;;0.40;98.00;;;;;;5037569;28;20116;-69
2021/01/06 11:52:01;;;;;;;26.00;16.80;;;0.40;98.00;;;;;;5035351;28;20046;-69
2021/01/06 11:54:31;;;;;;;22.05;15.73;;;0.20;98.00;;;;;;5037828;28;20041;-68
2021/01/06 11:57:22;;;;;;;23.02;14.68;;;0.10;98.00;;;;;;5035491;28;20037;-69
2021/01/06 12:00:05;;;;;;;18.30;12.85;;;0.10;98.00;;;;;;5031694;28;20017;-70
2021/01/06 12:02:53;;;;;;;21.13;15.32;;;0.20;98.00;;;;;;5033820;28;20064;-70
2021/01/06 12:05:31;;;;;;;25.25;16.30;;;0.30;98.00;;;;;;5037470;28;20045;-68
2021/01/06 12:08:03;;;;;;;25.38;15.40;;;0.40;98.00;;;;;;5041927;28;20021;-69
2021/01/06 12:10:50;;;;;;;21.25;14.73;;;0.30;98.00;;;;;;5043301;28;20036;-70
2021/01/06 12:13:42;;;;;;;22.77;14.88;;;0.40;98.00;;;;;;5029434;28;20047;-70
2021/01/06 12:16:13;;;;;;;24.20;16.60;;;0.40;98.00;;;;;;5033241;28;20025;-68
2021/01/06 12:19:06;;;;;;;22.23;15.40;;;0.50;98.00;;;;;;5037003;28;20052;-69
2021/01/06 12:21:52;;;;;;;24.83;15.27;;;0.40;98.00;;;;;;5037188;28;20025;-69
2021/01/06 12:24:30;;;;;;;20.05;13.13;;;0.40;98.00;;;;;;5037456;28;20365;-70
2021/01/06 12:27:01;;;;;;;25.17;15.95;;;0.40;98.00;;;;;;5036144;28;20037;-68
2021/01/06 12:29:48;;;;;;;20.38;15.00;;;0.40;98.00;;;;;;5036923;28;20112;-69
2021/01/06 12:32:47;;;;;;;20.67;14.70;;;0.40;98.00;;;;;;5036077;28;20033;-69
2021/01/06 12:35:28;;;;;;;22.10;14.65;;;0.50;98.00;;;;;;5037117;28;20022;-69
2021/01/06 12:38:07;;;;;;;21.10;14.40;;;0.50;98.00;;;;;;5017643;28;20022;-70
2021/01/06 12:40:53;;;;;;;27.55;17.40;;;0.40;98.00;;;;;;5035216;28;20048;-68
2021/01/06 12:43:27;;;;;;;28.27;18.17;;;0.40;98.00;;;;;;5037217;28;20034;-68
2021/01/06 12:46:18;;;;;;;24.73;16.20;;;0.40;98.00;;;;;;5035956;28;20048;-70
2021/01/06 12:49:13;;;;;;;22.00;14.10;;;0.30;98.00;;;;;;5017981;28;20109;-69
2021/01/06 12:52:08;;;;;;;17.33;12.15;;;0.30;98.00;;;;;;5036758;28;20037;-68
2021/01/06 12:54:40;;;;;;;22.65;15.30;;;0.30;98.00;;;;;;5037197;28;20046;-70
2021/01/06 12:57:14;;;;;;;19.00;12.98;;;0.40;98.00;;;;;;5036090;28;20037;-69
2021/01/06 13:00:01;;;;;;;23.70;13.85;;;0.50;98.00;;;;;;5036649;28;20022;-69
2021/01/06 13:02:34;;;;;;;13.98;9.73;;;0.60;98.00;;;;;;5036785;28;20025;-69
2021/01/06 13:05:23;;;;;;;16.75;12.25;;;0.50;98.00;;;;;;5035246;28;20132;-68
2021/01/06 13:07:55;;;;;;;16.65;11.73;;;0.40;98.00;;;;;;5036296;28;20096;-69
2021/01/06 13:10:53;;;;;;;19.73;14.18;;;0.40;98.00;;;;;;5033460;28;20431;-69
2021/01/06 13:13:21;;;;;;;18.38;12.60;;;0.30;98.00;;;;;;5036746;28;20128;-69
2021/01/06 13:15:55;;;;;;;21.00;14.68;;;0.30;98.00;;;;;;5036191;28;20029;-67
2021/01/06 13:19:10;;;;;;;20.90;13.40;;;0.20;98.00;;;;;;5036624;28;20128;-67
2021/01/06 13:21:58;;;;;;;11.15;8.13;;;0.30;98.00;;;;;;4991763;28;20030;-68
2021/01/06 13:24:30;;;;;;;14.48;8.50;;;0.20;98.00;;;;;;5033391;28;20037;-69
2021/01/06 13:27:06;;;;;;;15.18;9.18;;;0.10;98.00;;;;;;5038500;28;20021;-69